PDT,Max TemperatureF,Mean TemperatureF,Min TemperatureF,Max Dew PointF,MeanDew PointF,Min DewpointF,Max Humidity, Mean Humidity, Min Humidity, Max Sea Level PressureIn, Mean Sea Level PressureIn, Min Sea Level PressureIn, Max VisibilityMiles, Mean VisibilityMiles, Min VisibilityMiles, Max Wind SpeedMPH, Mean Wind SpeedMPH, Max Gust SpeedMPH,PrecipitationIn, CloudCover, Events, WindDirDegrees
2012-10-1,68,58,49,55,50,46,94,75,50,30.37,30.22,30.08,20,17,15,29,7,41,0.00,4,,109
2012-10-2,58,54,49,45,42,39,76,64,44,30.34,30.21,30.11,20,20,19,38,24,46,0.00,1,,307
2012-10-3,59,50,42,46,41,32,87,65,36,30.45,30.39,30.32,20,20,19,16,6,,0.00,0,,304
2012-10-4,58,50,41,47,43,37,87,73,56,30.35,30.32,30.28,,,,18,9,,0.00,0,,315
2012-10-5,62,52,42,46,42,37,82,67,35,30.35,30.30,30.24,15,15,15,15,5,,0.00,0,,316
2012-10-6,63,53,43,48,44,37,88,70,48,30.28,30.23,30.14,20,16,15,9,3,,0.00,1,,294
2012-10-7,64,54,43,50,47,41,93,76,52,30.14,30.04,29.94,20,20,19,7,3,,0.00,1,,269
2012-10-8,63,54,44,50,46,41,93,74,45,30.00,29.96,29.94,20,20,19,7,3,,0.00,1,Fog,11
2012-10-9,59,52,46,49,47,45,94,83,59,30.14,30.08,30.02,20,14,8,12,6,,0.00,3,,116
2012-10-10,53,48,42,48,47,43,100,91,82,30.05,30.03,30.00,12,6,0,7,3,,0.00,6,Fog,115
2012-10-11,55,52,49,48,47,46,94,87,72,30.02,29.93,29.81,10,6,2,10,3,,0.00,8,,151
2012-10-12,53,51,49,52,49,46,100,92,87,29.93,29.87,29.80,8,3,1,13,8,,0.16,8,Rain,108
2012-10-13,59,54,50,56,53,50,94,92,86,30.08,30.03,29.94,15,8,2,16,9,22,0.47,8,Rain,117
2012-10-14,59,56,53,56,55,52,94,91,86,30.01,29.88,29.83,15,10,2,21,13,28,0.39,8,Fog-Rain,142
2012-10-15,56,52,47,54,51,48,100,91,81,29.92,29.74,29.46,15,5,0,16,7,21,0.12,5,Fog-Rain,106
2012-10-16,59,54,50,50,44,41,82,68,53,30.23,29.91,29.49,20,18,15,29,12,36,0.00,3,Rain,259
2012-10-17,54,48,41,46,43,40,93,78,61,30.32,30.28,30.23,20,17,15,9,6,,0.00,7,,101
2012-10-18,54,52,49,50,46,43,94,83,67,30.23,30.00,29.74,20,11,2,15,7,18,0.67,8,Rain,87
2012-10-19,56,52,48,52,47,41,94,81,60,29.77,29.72,29.63,20,12,4,22,14,31,0.04,7,Rain,207
2012-10-20,50,46,41,41,38,34,93,74,54,29.84,29.81,29.73,20,17,15,17,11,21,0.04,6,Rain,189
2012-10-21,47,44,40,41,39,37,93,85,67,29.88,29.85,29.83,15,14,10,15,11,20,0.16,7,Rain,80
2012-10-22,49,42,34,41,37,32,87,77,56,29.83,29.68,29.59,20,16,12,16,5,21,0.08,7,Rain,20
2012-10-23,47,44,41,42,40,36,93,85,71,29.89,29.81,29.67,15,12,6,18,7,17,0.12,7,Rain,92
2012-10-24,46,44,42,42,40,37,87,82,74,30.18,30.00,29.88,15,15,10,13,8,,0.02,8,Rain,93
2012-10-25,51,45,39,43,40,37,93,81,66,30.44,30.36,30.20,15,15,15,8,4,,0.00,7,,102
2012-10-26,49,46,44,45,41,39,93,84,71,30.35,30.17,30.01,15,14,10,14,8,,0.16,8,Rain,79
2012-10-27,49,46,44,48,45,43,100,94,87,30.04,29.91,29.73,12,7,2,14,6,,0.43,8,Rain,91
2012-10-28,57,52,46,50,48,46,100,87,67,29.93,29.87,29.77,20,14,6,9,6,,0.04,7,Rain,105
2012-10-29,57,52,48,52,49,46,100,89,76,29.93,29.84,29.71,15,8,2,16,6,23,0.35,7,Rain,99
2012-10-30,55,53,51,52,51,50,100,93,88,29.91,29.84,29.74,15,10,4,12,7,17,0.28,8,Rain,86
2012-10-31,57,54,50,54,51,49,94,93,87,29.75,29.67,29.58,15,8,3,18,9,18,0.47,8,Rain,104